createdAt,value
2022-09-12T00:01:14.121Z,99.90
2022-09-12T00:03:41.595Z,99.90
2022-09-12T00:06:29.143Z,99.90
2022-09-12T00:09:02.118Z,99.90
2022-09-12T00:11:29.332Z,99.90
2022-09-12T00:13:58.371Z,99.90
2022-09-12T00:16:27.289Z,99.90
2022-09-12T00:18:54.590Z,99.90
2022-09-12T00:21:22.622Z,99.90
2022-09-12T00:23:50.000Z,99.90
2022-09-12T00:26:21.022Z,99.90
2022-09-12T00:28:48.591Z,99.90
2022-09-12T00:31:17.981Z,99.90
2022-09-12T00:33:45.087Z,99.90
2022-09-12T00:36:18.013Z,99.90
2022-09-12T00:38:48.073Z,99.90
2022-09-12T00:41:19.882Z,99.90
2022-09-12T00:43:52.485Z,99.90
2022-09-12T00:46:39.206Z,99.90
2022-09-12T00:49:14.162Z,99.90
2022-09-12T00:51:49.340Z,99.90
2022-09-12T00:54:27.645Z,99.90
2022-09-12T00:56:58.918Z,99.90
2022-09-12T00:59:34.525Z,99.90
2022-09-12T01:02:03.981Z,99.90
2022-09-12T01:04:31.409Z,99.90
2022-09-12T01:06:58.922Z,99.90
2022-09-12T01:09:25.815Z,99.90
2022-09-12T01:11:53.626Z,99.90
2022-09-12T01:14:23.511Z,99.90
2022-09-12T01:16:51.340Z,99.90
2022-09-12T01:19:54.643Z,99.90
2022-09-12T01:22:49.969Z,99.90
2022-09-12T01:25:25.792Z,99.90
2022-09-12T01:28:20.647Z,99.90
2022-09-12T01:30:52.044Z,99.90
2022-09-12T01:33:33.033Z,99.90
2022-09-12T01:36:34.753Z,99.90
2022-09-12T01:39:26.800Z,99.90
2022-09-12T01:42:15.868Z,99.90
2022-09-12T01:45:04.314Z,99.90
2022-09-12T01:47:40.803Z,99.90
2022-09-12T01:50:22.737Z,99.90
2022-09-12T01:53:04.286Z,99.90
2022-09-12T01:55:40.969Z,99.90
2022-09-12T01:58:13.817Z,99.90
2022-09-12T02:01:04.949Z,99.90
2022-09-12T02:03:39.569Z,99.90
2022-09-12T02:06:12.831Z,99.90
2022-09-12T02:08:53.225Z,99.90
2022-09-12T02:11:20.686Z,99.90
2022-09-12T02:13:59.044Z,99.90
2022-09-12T02:16:35.272Z,99.90
2022-09-12T02:19:14.858Z,99.90
2022-09-12T02:21:55.648Z,99.90
2022-09-12T02:24:46.027Z,99.90
2022-09-12T02:27:17.770Z,99.90
2022-09-12T02:29:45.567Z,99.90
2022-09-12T02:32:45.805Z,99.90
2022-09-12T02:35:36.769Z,99.90
2022-09-12T02:38:12.440Z,99.90
2022-09-12T02:40:41.926Z,99.90
2022-09-12T02:43:08.895Z,99.90
2022-09-12T02:45:38.649Z,99.90
2022-09-12T02:48:13.303Z,99.90
2022-09-12T02:50:43.446Z,99.90
2022-09-12T02:53:11.340Z,99.90
2022-09-12T02:55:41.487Z,99.90
2022-09-12T02:58:13.059Z,99.90
2022-09-12T03:00:46.380Z,99.90
2022-09-12T03:03:25.942Z,99.90
2022-09-12T03:05:59.785Z,99.90
2022-09-12T03:09:00.288Z,99.90
2022-09-12T03:11:48.139Z,99.90
2022-09-12T03:14:22.696Z,99.90
2022-09-12T03:16:55.350Z,99.90
2022-09-12T03:19:43.323Z,99.90
2022-09-12T03:22:21.784Z,99.90
2022-09-12T03:25:09.519Z,99.90
2022-09-12T03:27:58.536Z,99.90
2022-09-12T03:30:28.120Z,99.90
2022-09-12T03:32:58.136Z,99.90
2022-09-12T03:35:28.656Z,99.90
2022-09-12T03:37:55.368Z,99.90
2022-09-12T03:40:22.125Z,99.90
2022-09-12T03:42:48.902Z,99.90
2022-09-12T03:45:16.706Z,99.90
2022-09-12T03:47:43.532Z,99.90
2022-09-12T03:50:10.432Z,99.90
2022-09-12T03:52:39.360Z,99.90
2022-09-12T03:55:06.902Z,99.90
2022-09-12T03:57:33.678Z,99.90
2022-09-12T04:00:01.996Z,99.90
2022-09-12T04:02:29.384Z,99.90
2022-09-12T04:04:56.326Z,99.90
2022-09-12T04:07:23.215Z,99.90
2022-09-12T04:09:53.472Z,99.90
2022-09-12T04:12:20.906Z,99.90
2022-09-12T04:14:47.871Z,99.90
2022-09-12T04:17:15.070Z,99.90
2022-09-12T04:19:44.292Z,99.90
2022-09-12T04:22:10.957Z,99.90
2022-09-12T04:24:37.718Z,99.90
2022-09-12T04:27:07.700Z,99.90
2022-09-12T04:29:37.486Z,99.90
2022-09-12T04:32:04.701Z,99.90
2022-09-12T04:34:34.922Z,99.90
2022-09-12T04:37:01.645Z,99.90
2022-09-12T04:39:30.581Z,99.90
2022-09-12T04:41:57.275Z,99.90
2022-09-12T04:44:26.519Z,99.90
2022-09-12T04:46:56.421Z,99.90
2022-09-12T04:49:26.014Z,99.90
2022-09-12T04:51:55.085Z,99.90
2022-09-12T04:54:21.830Z,99.90
2022-09-12T04:56:50.916Z,99.90
2022-09-12T04:59:19.817Z,99.90
2022-09-12T05:01:49.838Z,99.90
2022-09-12T05:04:18.766Z,99.90
2022-09-12T05:06:47.458Z,99.90
2022-09-12T05:09:17.885Z,99.90
2022-09-12T05:12:05.003Z,99.90
2022-09-12T05:14:33.841Z,99.90
2022-09-12T05:17:01.793Z,99.90
2022-09-12T05:19:30.426Z,99.90
2022-09-12T05:21:59.898Z,99.90
2022-09-12T05:24:29.105Z,99.90
2022-09-12T05:26:55.862Z,99.90
2022-09-12T05:29:22.798Z,99.90
2022-09-12T05:31:54.240Z,99.90
2022-09-12T05:34:24.409Z,99.90
2022-09-12T05:36:51.203Z,99.90
2022-09-12T05:39:18.594Z,99.90
2022-09-12T05:41:45.789Z,99.90
2022-09-12T05:44:14.291Z,99.90
2022-09-12T05:46:44.114Z,99.90
2022-09-12T05:49:12.958Z,99.90
2022-09-12T05:51:42.319Z,99.90
2022-09-12T05:54:13.659Z,99.90
2022-09-12T05:56:42.591Z,99.90
2022-09-12T05:59:16.605Z,99.90
2022-09-12T06:01:43.885Z,99.90
2022-09-12T06:04:10.983Z,99.90
2022-09-12T06:06:42.524Z,99.90
2022-09-12T06:09:09.669Z,99.90
2022-09-12T06:11:37.986Z,99.90
2022-09-12T06:14:07.495Z,99.90
2022-09-12T06:16:35.492Z,99.90
2022-09-12T06:19:32.857Z,99.90
2022-09-12T06:22:02.408Z,99.90
2022-09-12T06:24:29.194Z,99.90
2022-09-12T06:26:55.993Z,99.90
2022-09-12T06:29:25.851Z,99.90
2022-09-12T06:31:54.682Z,99.90
2022-09-12T06:34:21.592Z,99.90
2022-09-12T06:36:49.524Z,99.90
2022-09-12T06:39:18.563Z,99.90
2022-09-12T06:41:45.947Z,99.90
2022-09-12T06:44:16.998Z,99.90
2022-09-12T06:46:44.490Z,99.90
2022-09-12T06:49:11.669Z,99.90
2022-09-12T06:51:38.486Z,99.90
2022-09-12T06:54:08.113Z,99.90
2022-09-12T06:56:34.890Z,99.90
2022-09-12T06:59:03.740Z,99.90
2022-09-12T07:01:35.279Z,99.90
2022-09-12T07:04:03.215Z,99.90
2022-09-12T07:06:38.053Z,99.90
2022-09-12T07:09:08.493Z,99.90
2022-09-12T07:11:36.763Z,99.90
2022-09-12T07:14:05.171Z,99.90
2022-09-12T07:16:32.462Z,99.90
2022-09-12T07:19:01.528Z,99.90
2022-09-12T07:21:29.703Z,99.90
2022-09-12T07:23:58.032Z,99.90
2022-09-12T07:26:28.901Z,99.90
2022-09-12T07:29:18.654Z,99.90
2022-09-12T07:31:46.161Z,99.90
2022-09-12T07:34:13.969Z,99.90
2022-09-12T07:36:40.848Z,99.90
2022-09-12T07:39:10.934Z,99.90
2022-09-12T07:41:40.856Z,99.90
2022-09-12T07:44:07.653Z,99.90
2022-09-12T07:46:35.423Z,99.90
2022-09-12T07:49:03.118Z,99.90
2022-09-12T07:51:31.395Z,99.90
2022-09-12T07:54:02.661Z,99.90
2022-09-12T07:56:32.021Z,99.90
2022-09-12T07:59:04.252Z,99.90
2022-09-12T08:01:31.147Z,99.90
2022-09-12T08:04:04.984Z,99.90
2022-09-12T08:06:36.093Z,99.90
2022-09-12T08:09:07.931Z,99.90
2022-09-12T08:11:35.200Z,99.90
2022-09-12T08:14:07.234Z,99.70
2022-09-12T08:16:36.994Z,99.50
2022-09-12T08:19:04.506Z,99.20
2022-09-12T08:21:33.193Z,99.00
2022-09-12T08:24:05.222Z,98.80
2022-09-12T08:26:33.488Z,98.50
2022-09-12T08:29:04.423Z,98.50
2022-09-12T08:31:38.195Z,98.40
2022-09-12T08:34:09.085Z,98.30
2022-09-12T08:36:36.523Z,98.10
2022-09-12T08:39:06.337Z,98.00
2022-09-12T08:41:39.512Z,97.80
2022-09-12T08:44:09.448Z,97.80
2022-09-12T08:46:45.250Z,97.80
2022-09-12T08:49:20.339Z,97.40
2022-09-12T08:51:47.731Z,97.50
2022-09-12T08:54:26.828Z,97.20
2022-09-12T08:57:09.037Z,96.90
2022-09-12T08:59:42.413Z,97.00
2022-09-12T09:02:31.957Z,96.30
2022-09-12T09:05:04.832Z,96.00
2022-09-12T09:08:10.675Z,96.00
2022-09-12T09:11:06.487Z,95.70
2022-09-12T09:13:55.145Z,95.40
2022-09-12T09:16:41.185Z,95.10
2022-09-12T09:19:34.509Z,94.40
2022-09-12T09:22:08.298Z,94.00
2022-09-12T09:24:41.133Z,93.80
2022-09-12T09:27:41.582Z,93.60
2022-09-12T09:30:15.447Z,93.40
2022-09-12T09:32:52.956Z,93.40
2022-09-12T09:35:45.987Z,93.10
2022-09-12T09:38:24.459Z,92.60
2022-09-12T09:41:07.129Z,92.40
2022-09-12T09:43:33.898Z,92.10
2022-09-12T09:46:00.853Z,91.80
2022-09-12T09:48:36.712Z,91.50
2022-09-12T09:51:07.162Z,91.20
2022-09-12T09:53:42.042Z,91.20
2022-09-12T09:56:26.435Z,91.10
2022-09-12T09:58:53.246Z,90.80
2022-09-12T10:01:21.223Z,90.60
2022-09-12T10:03:56.159Z,90.30
2022-09-12T10:06:28.486Z,90.20
2022-09-12T10:09:07.556Z,90.20
2022-09-12T10:11:34.702Z,89.60
2022-09-12T10:14:01.430Z,88.80
2022-09-12T10:16:34.696Z,89.60
2022-09-12T10:19:03.929Z,88.20
2022-09-12T10:21:43.055Z,88.20
2022-09-12T10:24:26.026Z,87.90
2022-09-12T10:27:13.180Z,88.10
2022-09-12T10:29:48.457Z,88.10
2022-09-12T10:32:39.889Z,88.30
2022-09-12T10:35:20.891Z,88.70
2022-09-12T10:38:02.599Z,89.00
2022-09-12T10:40:37.707Z,88.40
2022-09-12T10:43:39.451Z,88.10
2022-09-12T10:46:15.703Z,88.90
2022-09-12T10:48:49.948Z,88.90
2022-09-12T10:51:31.092Z,88.30
2022-09-12T10:54:04.752Z,88.10
2022-09-12T10:56:39.560Z,87.40
2022-09-12T10:59:20.356Z,86.00
2022-09-12T11:01:51.526Z,84.60
2022-09-12T11:04:37.763Z,85.30
2022-09-12T11:07:20.614Z,85.40
2022-09-12T11:09:47.431Z,84.30
2022-09-12T11:12:49.374Z,84.20
2022-09-12T11:16:05.511Z,82.90
2022-09-12T11:19:13.689Z,82.70
2022-09-12T11:22:15.618Z,82.40
2022-09-12T11:25:06.685Z,82.90
2022-09-12T11:27:55.046Z,82.90
2022-09-12T11:30:24.604Z,82.10
2022-09-12T11:33:05.690Z,81.80
2022-09-12T11:35:35.089Z,81.20
2022-09-12T11:38:07.524Z,81.30
2022-09-12T11:40:49.311Z,81.50
2022-09-12T11:43:18.901Z,81.20
2022-09-12T11:45:49.988Z,81.10
2022-09-12T11:48:48.743Z,80.90
2022-09-12T11:51:20.340Z,79.70
2022-09-12T11:54:00.372Z,79.80
2022-09-12T11:56:29.456Z,79.20
2022-09-12T11:59:04.585Z,78.50
2022-09-12T12:01:48.375Z,79.10
2022-09-12T12:04:20.695Z,78.80
2022-09-12T12:06:53.993Z,78.40
2022-09-12T12:09:21.063Z,78.40
2022-09-12T12:11:57.608Z,78.70
2022-09-12T12:14:51.195Z,78.00
2022-09-12T12:17:20.125Z,77.40
2022-09-12T12:19:57.275Z,76.80
2022-09-12T12:22:28.576Z,77.00
2022-09-12T12:24:58.439Z,77.00
2022-09-12T12:27:46.800Z,77.10
2022-09-12T12:30:34.190Z,75.20
2022-09-12T12:33:10.620Z,75.60
2022-09-12T12:35:46.290Z,74.90
2022-09-12T12:38:38.369Z,75.30
2022-09-12T12:41:17.340Z,76.10
2022-09-12T12:43:48.585Z,75.90
2022-09-12T12:46:26.588Z,75.40
2022-09-12T12:49:24.639Z,75.70
2022-09-12T12:51:54.452Z,75.30
2022-09-12T12:54:44.463Z,74.80
2022-09-12T12:57:18.891Z,75.00
2022-09-12T13:00:27.770Z,73.70
2022-09-12T13:03:31.558Z,74.50
2022-09-12T13:06:02.897Z,73.60
2022-09-12T13:08:36.419Z,73.10
2022-09-12T13:11:12.638Z,72.50
2022-09-12T13:13:49.725Z,72.10
2022-09-12T13:16:37.721Z,72.00
2022-09-12T13:19:18.594Z,72.90
2022-09-12T13:22:11.526Z,71.30
2022-09-12T13:24:48.864Z,72.50
2022-09-12T13:27:19.012Z,72.50
2022-09-12T13:29:46.061Z,72.60
2022-09-12T13:32:12.927Z,72.60
2022-09-12T13:35:12.084Z,70.80
2022-09-12T13:37:55.643Z,70.30
2022-09-12T13:40:41.582Z,70.20
2022-09-12T13:43:15.284Z,70.30
2022-09-12T13:45:44.863Z,70.20
2022-09-12T13:48:24.187Z,70.70
2022-09-12T13:50:58.814Z,70.80
2022-09-12T13:53:42.350Z,70.10
2022-09-12T13:56:17.249Z,69.80
2022-09-12T13:58:58.848Z,69.70
2022-09-12T14:01:41.648Z,69.10
2022-09-12T14:04:48.157Z,68.70
2022-09-12T14:07:20.373Z,69.30
2022-09-12T14:09:56.765Z,68.50
2022-09-12T14:12:31.162Z,67.90
2022-09-12T14:14:58.641Z,69.20
2022-09-12T14:17:32.866Z,68.50
2022-09-12T14:20:03.863Z,69.10
2022-09-12T14:22:32.144Z,69.40
2022-09-12T14:25:02.238Z,69.80
2022-09-12T14:27:45.686Z,70.00
2022-09-12T14:30:32.947Z,68.80
2022-09-12T14:33:12.159Z,69.50
2022-09-12T14:35:43.682Z,70.30
2022-09-12T14:38:16.281Z,70.70
2022-09-12T14:40:46.051Z,69.70
2022-09-12T14:43:32.565Z,69.60
2022-09-12T14:46:03.339Z,69.40
2022-09-12T14:48:34.717Z,69.70
2022-09-12T14:51:05.194Z,69.30
2022-09-12T14:53:33.505Z,68.30
2022-09-12T14:56:12.556Z,68.90
2022-09-12T14:58:42.428Z,69.60
2022-09-12T15:01:11.728Z,69.20
2022-09-12T15:03:53.990Z,68.80
2022-09-12T15:06:29.481Z,68.20
2022-09-12T15:08:59.424Z,67.30
2022-09-12T15:11:33.081Z,67.60
2022-09-12T15:14:07.666Z,67.50
2022-09-12T15:16:34.426Z,67.40
2022-09-12T15:19:01.349Z,67.70
2022-09-12T15:21:28.108Z,68.20
2022-09-12T15:23:57.051Z,68.50
2022-09-12T15:26:27.506Z,68.10
2022-09-12T15:28:54.286Z,68.40
2022-09-12T15:31:25.360Z,69.00
2022-09-12T15:33:52.420Z,68.10
2022-09-12T15:36:21.123Z,67.80
2022-09-12T15:38:51.148Z,67.70
2022-09-12T15:41:38.421Z,68.00
2022-09-12T15:44:07.987Z,68.30
2022-09-12T15:46:34.958Z,69.70
2022-09-12T15:49:01.717Z,70.30
2022-09-12T15:51:28.458Z,71.20
2022-09-12T15:53:55.275Z,71.60
2022-09-12T15:56:22.878Z,71.70
2022-09-12T15:58:58.785Z,72.30
2022-09-12T16:01:27.798Z,72.80
2022-09-12T16:03:54.778Z,73.00
2022-09-12T16:06:22.374Z,73.30
2022-09-12T16:08:51.287Z,73.20
2022-09-12T16:11:25.995Z,73.00
2022-09-12T16:13:53.825Z,73.50
2022-09-12T16:16:20.876Z,73.60
2022-09-12T16:18:47.785Z,73.50
2022-09-12T16:21:15.695Z,73.60
2022-09-12T16:23:46.834Z,74.00
2022-09-12T16:26:13.983Z,73.50
2022-09-12T16:28:41.016Z,73.70
2022-09-12T16:31:11.500Z,74.10
2022-09-12T16:33:39.180Z,74.10
2022-09-12T16:36:14.530Z,73.90
2022-09-12T16:38:52.628Z,74.30
2022-09-12T16:41:22.101Z,75.00
2022-09-12T16:43:49.199Z,75.40
2022-09-12T16:46:19.060Z,75.70
2022-09-12T16:48:52.062Z,76.90
2022-09-12T16:51:21.662Z,76.50
2022-09-12T16:53:49.101Z,77.30
2022-09-12T16:56:16.203Z,76.70
2022-09-12T16:58:43.651Z,76.30
2022-09-12T17:01:16.030Z,76.20
2022-09-12T17:03:45.592Z,76.20
2022-09-12T17:06:15.475Z,76.50
2022-09-12T17:08:45.450Z,77.10
2022-09-12T17:11:21.082Z,78.40
2022-09-12T17:14:04.382Z,80.20
2022-09-12T17:16:37.661Z,80.30
2022-09-12T17:19:05.541Z,79.20
2022-09-12T17:21:35.144Z,78.20
2022-09-12T17:24:02.180Z,77.30
2022-09-12T17:26:31.711Z,77.20
2022-09-12T17:28:58.549Z,77.20
2022-09-12T17:31:27.644Z,77.20
2022-09-12T17:34:04.141Z,77.10
2022-09-12T17:36:31.935Z,77.40
2022-09-12T17:39:06.480Z,77.70
2022-09-12T17:41:35.738Z,77.60
2022-09-12T17:44:07.413Z,78.40
2022-09-12T17:46:38.563Z,79.20
2022-09-12T17:49:13.987Z,79.20
2022-09-12T17:51:43.994Z,78.60
2022-09-12T17:54:16.475Z,78.80
2022-09-12T17:56:48.982Z,80.50
2022-09-12T17:59:21.466Z,81.10
2022-09-12T18:02:14.342Z,81.60
2022-09-12T18:04:45.777Z,83.00
2022-09-12T18:07:19.321Z,84.60
2022-09-12T18:09:50.645Z,84.40
2022-09-12T18:12:21.592Z,84.80
2022-09-12T18:14:48.418Z,85.60
2022-09-12T18:17:15.509Z,86.10
2022-09-12T18:19:44.009Z,87.10
2022-09-12T18:22:11.428Z,87.40
2022-09-12T18:24:38.291Z,87.40
2022-09-12T18:27:07.575Z,87.60
2022-09-12T18:29:36.741Z,88.20
2022-09-12T18:32:06.571Z,88.40
2022-09-12T18:34:38.694Z,88.70
2022-09-12T18:37:08.241Z,88.90
2022-09-12T18:39:35.017Z,89.40
2022-09-12T18:42:01.703Z,89.80
2022-09-12T18:44:30.997Z,90.00
2022-09-12T18:47:00.174Z,90.00
2022-09-12T18:49:26.963Z,90.10
2022-09-12T18:51:56.228Z,90.20
2022-09-12T18:54:23.297Z,90.30
2022-09-12T18:56:52.832Z,90.60
2022-09-12T18:59:19.903Z,90.80
2022-09-12T19:01:50.382Z,90.90
2022-09-12T19:04:19.829Z,91.10
2022-09-12T19:06:50.578Z,91.30
2022-09-12T19:09:20.676Z,91.40
2022-09-12T19:11:50.882Z,91.50
2022-09-12T19:14:26.040Z,91.50
2022-09-12T19:16:53.618Z,91.70
2022-09-12T19:19:21.053Z,91.90
2022-09-12T19:21:53.115Z,92.00
2022-09-12T19:24:23.588Z,92.00
2022-09-12T19:26:51.061Z,92.00
2022-09-12T19:29:20.887Z,92.20
2022-09-12T19:31:50.145Z,92.30
2022-09-12T19:34:17.254Z,92.30
2022-09-12T19:36:47.529Z,92.50
2022-09-12T19:39:19.657Z,92.60
2022-09-12T19:41:47.035Z,92.70
2022-09-12T19:44:14.321Z,92.80
2022-09-12T19:46:44.494Z,93.00
2022-09-12T19:49:14.416Z,93.10
2022-09-12T19:51:43.963Z,93.00
2022-09-12T19:54:13.772Z,93.30
2022-09-12T19:56:40.571Z,93.30
2022-09-12T19:59:10.654Z,93.30
2022-09-12T20:01:43.272Z,93.30
2022-09-12T20:04:12.823Z,93.70
2022-09-12T20:06:44.149Z,93.50
2022-09-12T20:09:11.324Z,93.60
2022-09-12T20:11:38.089Z,93.40
2022-09-12T20:14:04.976Z,93.60
2022-09-12T20:16:33.282Z,93.80
2022-09-12T20:19:08.553Z,93.90
2022-09-12T20:21:36.524Z,94.10
2022-09-12T20:24:05.390Z,94.20
2022-09-12T20:26:38.045Z,94.30
2022-09-12T20:29:08.656Z,94.50
2022-09-12T20:31:37.718Z,94.40
2022-09-12T20:34:13.407Z,94.60
2022-09-12T20:36:42.621Z,94.80
2022-09-12T20:39:17.853Z,94.90
2022-09-12T20:41:45.316Z,95.00
2022-09-12T20:44:12.348Z,95.00
2022-09-12T20:46:44.551Z,95.00
2022-09-12T20:49:11.441Z,95.10
2022-09-12T20:51:40.690Z,95.10
2022-09-12T20:54:07.939Z,95.30
2022-09-12T20:56:39.911Z,95.40
2022-09-12T20:59:06.877Z,95.60
2022-09-12T21:01:34.427Z,95.70
2022-09-12T21:04:01.625Z,95.70
2022-09-12T21:06:28.890Z,95.80
2022-09-12T21:08:59.893Z,95.80
2022-09-12T21:11:27.946Z,95.90
2022-09-12T21:13:54.856Z,96.10
2022-09-12T21:16:24.053Z,96.20
2022-09-12T21:18:58.837Z,96.30
2022-09-12T21:21:26.302Z,96.40
2022-09-12T21:23:55.284Z,96.40
2022-09-12T21:26:22.037Z,96.60
2022-09-12T21:28:51.280Z,96.60
2022-09-12T21:31:20.480Z,96.50
2022-09-12T21:33:50.325Z,96.50
2022-09-12T21:36:17.650Z,96.60
2022-09-12T21:38:44.405Z,96.50
2022-09-12T21:41:14.531Z,96.30
2022-09-12T21:43:42.760Z,96.30
2022-09-12T21:46:10.987Z,96.50
2022-09-12T21:48:38.147Z,96.50
2022-09-12T21:51:10.547Z,96.60
2022-09-12T21:53:39.534Z,96.70
2022-09-12T21:56:08.579Z,96.70
2022-09-12T21:58:36.878Z,96.60
2022-09-12T22:01:04.715Z,96.60
2022-09-12T22:03:34.426Z,96.70
2022-09-12T22:06:03.488Z,96.70
2022-09-12T22:08:34.982Z,96.60
2022-09-12T22:11:04.458Z,96.60
2022-09-12T22:13:32.669Z,96.60
2022-09-12T22:16:01.045Z,96.70
2022-09-12T22:18:27.851Z,96.60
2022-09-12T22:21:12.427Z,96.60
2022-09-12T22:24:00.637Z,96.60
2022-09-12T22:26:29.001Z,96.70
2022-09-12T22:28:58.340Z,96.70
2022-09-12T22:31:28.137Z,96.90
2022-09-12T22:33:58.556Z,96.90
2022-09-12T22:36:30.418Z,97.00
2022-09-12T22:38:58.608Z,97.10
2022-09-12T22:41:27.591Z,97.20
2022-09-12T22:43:54.317Z,97.30
2022-09-12T22:46:21.221Z,97.40
2022-09-12T22:48:50.628Z,97.50
2022-09-12T22:51:17.404Z,97.50
2022-09-12T22:53:44.982Z,97.60
2022-09-12T22:56:11.952Z,97.60
2022-09-12T22:58:38.791Z,97.70
2022-09-12T23:01:10.049Z,97.70
2022-09-12T23:03:37.075Z,97.70
2022-09-12T23:06:05.577Z,97.70
2022-09-12T23:08:36.411Z,97.80
2022-09-12T23:11:07.881Z,97.90
2022-09-12T23:13:34.707Z,98.00
2022-09-12T23:16:04.718Z,98.10
2022-09-12T23:18:33.578Z,98.10
2022-09-12T23:21:05.683Z,98.20
2022-09-12T23:23:33.106Z,98.20
2022-09-12T23:26:11.157Z,98.30
2022-09-12T23:28:39.121Z,98.50
2022-09-12T23:31:07.594Z,98.50
2022-09-12T23:33:36.829Z,98.50
2022-09-12T23:36:12.685Z,98.50
2022-09-12T23:38:42.619Z,98.60
2022-09-12T23:41:10.585Z,98.60
2022-09-12T23:43:37.398Z,98.70
2022-09-12T23:46:05.113Z,98.80
2022-09-12T23:48:34.562Z,98.70
2022-09-12T23:51:04.690Z,98.60
2022-09-12T23:53:36.140Z,98.70
2022-09-12T23:56:05.845Z,98.80
2022-09-12T23:58:32.988Z,98.80
